sensor_id;sensor_type;location;lat;lon;timestamp;P1;durP1;ratioP1;P2;durP2;ratioP2
9789;SDS011;4934;50.852;8.098;2022-10-31T00:00:40;18.80;;;7.50;;
9789;SDS011;4934;50.852;8.098;2022-10-31T00:03:06;15.77;;;7.80;;
9789;SDS011;4934;50.852;8.098;2022-10-31T00:05:32;23.23;;;9.70;;
9789;SDS011;4934;50.852;8.098;2022-10-31T00:07:57;21.83;;;9.57;;
9789;SDS011;4934;50.852;8.098;2022-10-31T00:10:23;20.88;;;9.50;;
9789;SDS011;4934;50.852;8.098;2022-10-31T00:12:48;19.98;;;8.98;;
9789;SDS011;4934;50.852;8.098;2022-10-31T00:15:14;19.13;;;8.30;;
9789;SDS011;4934;50.852;8.098;2022-10-31T00:17:40;20.33;;;7.78;;
9789;SDS011;4934;50.852;8.098;2022-10-31T00:20:05;14.55;;;6.95;;
9789;SDS011;4934;50.852;8.098;2022-10-31T00:22:31;22.42;;;8.57;;
9789;SDS011;4934;50.852;8.098;2022-10-31T00:24:57;14.55;;;7.38;;
9789;SDS011;4934;50.852;8.098;2022-10-31T00:27:22;17.95;;;7.93;;
9789;SDS011;4934;50.852;8.098;2022-10-31T00:29:48;18.42;;;7.82;;
9789;SDS011;4934;50.852;8.098;2022-10-31T00:32:13;23.13;;;8.50;;
9789;SDS011;4934;50.852;8.098;2022-10-31T00:34:39;17.50;;;7.35;;
9789;SDS011;4934;50.852;8.098;2022-10-31T00:37:05;17.95;;;6.70;;
9789;SDS011;4934;50.852;8.098;2022-10-31T00:39:30;16.02;;;8.00;;
9789;SDS011;4934;50.852;8.098;2022-10-31T00:41:56;17.75;;;7.93;;
9789;SDS011;4934;50.852;8.098;2022-10-31T00:44:21;14.80;;;6.82;;
9789;SDS011;4934;50.852;8.098;2022-10-31T00:46:47;24.50;;;8.05;;
9789;SDS011;4934;50.852;8.098;2022-10-31T00:49:12;17.95;;;8.07;;
9789;SDS011;4934;50.852;8.098;2022-10-31T00:51:38;23.92;;;8.73;;
9789;SDS011;4934;50.852;8.098;2022-10-31T00:54:03;22.05;;;8.25;;
9789;SDS011;4934;50.852;8.098;2022-10-31T00:56:29;23.77;;;9.05;;
9789;SDS011;4934;50.852;8.098;2022-10-31T00:58:55;19.77;;;7.25;;
9789;SDS011;4934;50.852;8.098;2022-10-31T01:01:20;17.98;;;7.88;;
9789;SDS011;4934;50.852;8.098;2022-10-31T01:03:46;22.08;;;7.38;;
9789;SDS011;4934;50.852;8.098;2022-10-31T01:06:12;22.52;;;8.40;;
9789;SDS011;4934;50.852;8.098;2022-10-31T01:08:38;19.98;;;7.70;;
9789;SDS011;4934;50.852;8.098;2022-10-31T01:13:36;16.73;;;7.35;;
9789;SDS011;4934;50.852;8.098;2022-10-31T01:16:02;23.85;;;9.50;;
9789;SDS011;4934;50.852;8.098;2022-10-31T01:18:30;12.68;;;6.32;;
9789;SDS011;4934;50.852;8.098;2022-10-31T01:20:56;18.95;;;7.65;;
9789;SDS011;4934;50.852;8.098;2022-10-31T01:23:28;20.48;;;8.13;;
9789;SDS011;4934;50.852;8.098;2022-10-31T01:26:05;19.77;;;8.02;;
9789;SDS011;4934;50.852;8.098;2022-10-31T01:28:34;19.88;;;7.43;;
9789;SDS011;4934;50.852;8.098;2022-10-31T01:31:02;21.40;;;7.90;;
9789;SDS011;4934;50.852;8.098;2022-10-31T01:33:30;18.38;;;8.43;;
9789;SDS011;4934;50.852;8.098;2022-10-31T01:35:56;19.40;;;8.98;;
9789;SDS011;4934;50.852;8.098;2022-10-31T01:38:22;22.33;;;8.15;;
9789;SDS011;4934;50.852;8.098;2022-10-31T01:40:48;17.52;;;8.25;;
9789;SDS011;4934;50.852;8.098;2022-10-31T01:43:14;21.40;;;7.63;;
9789;SDS011;4934;50.852;8.098;2022-10-31T01:45:40;14.90;;;6.90;;
9789;SDS011;4934;50.852;8.098;2022-10-31T01:50:38;16.38;;;6.95;;
9789;SDS011;4934;50.852;8.098;2022-10-31T01:53:04;15.50;;;6.63;;
9789;SDS011;4934;50.852;8.098;2022-10-31T01:55:33;15.73;;;7.28;;
9789;SDS011;4934;50.852;8.098;2022-10-31T01:58:04;12.75;;;6.28;;
9789;SDS011;4934;50.852;8.098;2022-10-31T02:00:34;15.50;;;7.53;;
9789;SDS011;4934;50.852;8.098;2022-10-31T02:02:59;17.40;;;7.57;;
9789;SDS011;4934;50.852;8.098;2022-10-31T02:05:26;22.90;;;6.63;;
9789;SDS011;4934;50.852;8.098;2022-10-31T02:10:25;18.88;;;7.10;;
9789;SDS011;4934;50.852;8.098;2022-10-31T02:12:53;14.63;;;7.25;;
9789;SDS011;4934;50.852;8.098;2022-10-31T02:15:21;18.75;;;7.00;;
9789;SDS011;4934;50.852;8.098;2022-10-31T02:17:47;20.13;;;6.43;;
9789;SDS011;4934;50.852;8.098;2022-10-31T02:20:15;20.85;;;6.85;;
9789;SDS011;4934;50.852;8.098;2022-10-31T02:22:54;18.35;;;7.03;;
9789;SDS011;4934;50.852;8.098;2022-10-31T02:25:39;13.73;;;6.20;;
9789;SDS011;4934;50.852;8.098;2022-10-31T02:28:34;16.52;;;6.47;;
9789;SDS011;4934;50.852;8.098;2022-10-31T02:31:35;18.00;;;7.03;;
9789;SDS011;4934;50.852;8.098;2022-10-31T02:34:19;22.50;;;7.28;;
9789;SDS011;4934;50.852;8.098;2022-10-31T02:36:58;22.25;;;6.95;;
9789;SDS011;4934;50.852;8.098;2022-10-31T02:39:34;17.40;;;6.87;;
9789;SDS011;4934;50.852;8.098;2022-10-31T02:45:08;15.25;;;6.53;;
9789;SDS011;4934;50.852;8.098;2022-10-31T02:48:10;14.35;;;6.68;;
9789;SDS011;4934;50.852;8.098;2022-10-31T02:50:41;13.90;;;6.30;;
9789;SDS011;4934;50.852;8.098;2022-10-31T02:53:13;15.75;;;6.72;;
9789;SDS011;4934;50.852;8.098;2022-10-31T02:55:48;12.25;;;6.57;;
9789;SDS011;4934;50.852;8.098;2022-10-31T02:58:27;16.42;;;6.20;;
9789;SDS011;4934;50.852;8.098;2022-10-31T03:01:09;13.82;;;5.82;;
9789;SDS011;4934;50.852;8.098;2022-10-31T03:09:41;14.63;;;6.60;;
9789;SDS011;4934;50.852;8.098;2022-10-31T03:17:54;17.40;;;5.93;;
9789;SDS011;4934;50.852;8.098;2022-10-31T03:20:30;12.48;;;5.10;;
9789;SDS011;4934;50.852;8.098;2022-10-31T03:23:00;14.43;;;6.28;;
9789;SDS011;4934;50.852;8.098;2022-10-31T03:25:28;13.38;;;6.03;;
9789;SDS011;4934;50.852;8.098;2022-10-31T03:27:55;16.77;;;6.00;;
9789;SDS011;4934;50.852;8.098;2022-10-31T03:30:22;14.00;;;5.95;;
9789;SDS011;4934;50.852;8.098;2022-10-31T03:32:51;14.45;;;6.07;;
9789;SDS011;4934;50.852;8.098;2022-10-31T03:35:20;12.40;;;6.40;;
9789;SDS011;4934;50.852;8.098;2022-10-31T03:40:14;12.70;;;5.55;;
9789;SDS011;4934;50.852;8.098;2022-10-31T03:42:43;15.00;;;6.40;;
9789;SDS011;4934;50.852;8.098;2022-10-31T03:45:14;15.50;;;7.35;;
9789;SDS011;4934;50.852;8.098;2022-10-31T03:47:51;16.98;;;6.05;;
9789;SDS011;4934;50.852;8.098;2022-10-31T03:50:18;14.95;;;6.25;;
9789;SDS011;4934;50.852;8.098;2022-10-31T03:52:46;17.10;;;6.50;;
9789;SDS011;4934;50.852;8.098;2022-10-31T03:55:34;11.25;;;5.85;;
9789;SDS011;4934;50.852;8.098;2022-10-31T03:58:27;13.35;;;5.63;;
9789;SDS011;4934;50.852;8.098;2022-10-31T04:01:02;16.25;;;6.03;;
9789;SDS011;4934;50.852;8.098;2022-10-31T04:03:31;12.10;;;5.88;;
9789;SDS011;4934;50.852;8.098;2022-10-31T04:08:29;13.65;;;5.90;;
9789;SDS011;4934;50.852;8.098;2022-10-31T04:10:57;13.68;;;5.60;;
9789;SDS011;4934;50.852;8.098;2022-10-31T04:13:29;14.38;;;6.28;;
9789;SDS011;4934;50.852;8.098;2022-10-31T04:15:58;17.33;;;6.10;;
9789;SDS011;4934;50.852;8.098;2022-10-31T04:18:24;18.05;;;6.68;;
9789;SDS011;4934;50.852;8.098;2022-10-31T04:20:58;13.13;;;6.72;;
9789;SDS011;4934;50.852;8.098;2022-10-31T04:23:28;19.70;;;6.50;;
9789;SDS011;4934;50.852;8.098;2022-10-31T04:25:54;17.13;;;5.80;;
9789;SDS011;4934;50.852;8.098;2022-10-31T04:28:19;15.18;;;5.07;;
9789;SDS011;4934;50.852;8.098;2022-10-31T04:30:45;11.10;;;5.85;;
9789;SDS011;4934;50.852;8.098;2022-10-31T04:33:11;16.77;;;6.32;;
9789;SDS011;4934;50.852;8.098;2022-10-31T04:35:36;12.63;;;5.70;;
9789;SDS011;4934;50.852;8.098;2022-10-31T04:38:02;13.70;;;6.60;;
9789;SDS011;4934;50.852;8.098;2022-10-31T04:40:27;13.52;;;6.63;;
9789;SDS011;4934;50.852;8.098;2022-10-31T04:42:53;11.40;;;6.40;;
9789;SDS011;4934;50.852;8.098;2022-10-31T04:45:18;14.77;;;6.40;;
9789;SDS011;4934;50.852;8.098;2022-10-31T04:47:44;19.45;;;7.18;;
9789;SDS011;4934;50.852;8.098;2022-10-31T04:50:10;10.27;;;5.38;;
9789;SDS011;4934;50.852;8.098;2022-10-31T04:52:39;10.95;;;5.85;;
9789;SDS011;4934;50.852;8.098;2022-10-31T04:55:05;12.02;;;5.22;;
9789;SDS011;4934;50.852;8.098;2022-10-31T04:57:31;13.70;;;5.70;;
9789;SDS011;4934;50.852;8.098;2022-10-31T04:59:57;14.20;;;6.05;;
9789;SDS011;4934;50.852;8.098;2022-10-31T05:02:22;12.45;;;5.07;;
9789;SDS011;4934;50.852;8.098;2022-10-31T05:04:48;10.18;;;5.28;;
9789;SDS011;4934;50.852;8.098;2022-10-31T05:07:13;10.98;;;5.40;;
9789;SDS011;4934;50.852;8.098;2022-10-31T05:09:39;13.48;;;5.47;;
9789;SDS011;4934;50.852;8.098;2022-10-31T05:12:05;11.57;;;4.70;;
9789;SDS011;4934;50.852;8.098;2022-10-31T05:14:30;13.05;;;5.40;;
9789;SDS011;4934;50.852;8.098;2022-10-31T05:16:56;13.05;;;5.97;;
9789;SDS011;4934;50.852;8.098;2022-10-31T05:19:21;16.17;;;6.32;;
9789;SDS011;4934;50.852;8.098;2022-10-31T05:21:47;15.32;;;6.35;;
9789;SDS011;4934;50.852;8.098;2022-10-31T05:24:12;19.08;;;5.95;;
9789;SDS011;4934;50.852;8.098;2022-10-31T05:26:38;17.25;;;6.55;;
9789;SDS011;4934;50.852;8.098;2022-10-31T05:29:04;10.77;;;5.65;;
9789;SDS011;4934;50.852;8.098;2022-10-31T05:31:29;16.85;;;5.68;;
9789;SDS011;4934;50.852;8.098;2022-10-31T05:33:55;12.98;;;6.05;;
9789;SDS011;4934;50.852;8.098;2022-10-31T05:36:20;13.35;;;6.18;;
9789;SDS011;4934;50.852;8.098;2022-10-31T05:38:46;12.18;;;4.85;;
9789;SDS011;4934;50.852;8.098;2022-10-31T05:41:11;13.27;;;5.57;;
9789;SDS011;4934;50.852;8.098;2022-10-31T05:43:37;11.73;;;5.22;;
9789;SDS011;4934;50.852;8.098;2022-10-31T05:46:02;13.25;;;5.80;;
9789;SDS011;4934;50.852;8.098;2022-10-31T05:48:28;14.73;;;5.72;;
9789;SDS011;4934;50.852;8.098;2022-10-31T05:50:54;12.48;;;5.13;;
9789;SDS011;4934;50.852;8.098;2022-10-31T05:53:19;17.17;;;6.70;;
9789;SDS011;4934;50.852;8.098;2022-10-31T05:55:45;13.68;;;5.72;;
9789;SDS011;4934;50.852;8.098;2022-10-31T05:58:11;10.88;;;4.88;;
9789;SDS011;4934;50.852;8.098;2022-10-31T06:00:37;17.95;;;6.18;;
9789;SDS011;4934;50.852;8.098;2022-10-31T06:03:03;11.65;;;5.35;;
9789;SDS011;4934;50.852;8.098;2022-10-31T06:05:30;21.70;;;7.43;;
9789;SDS011;4934;50.852;8.098;2022-10-31T06:07:57;17.48;;;6.65;;
9789;SDS011;4934;50.852;8.098;2022-10-31T06:10:22;12.95;;;5.57;;
9789;SDS011;4934;50.852;8.098;2022-10-31T06:12:48;13.35;;;5.57;;
9789;SDS011;4934;50.852;8.098;2022-10-31T06:15:14;20.55;;;8.20;;
9789;SDS011;4934;50.852;8.098;2022-10-31T06:17:40;14.95;;;6.78;;
9789;SDS011;4934;50.852;8.098;2022-10-31T06:20:06;15.52;;;6.72;;
9789;SDS011;4934;50.852;8.098;2022-10-31T06:22:32;13.40;;;5.82;;
9789;SDS011;4934;50.852;8.098;2022-10-31T06:24:58;17.33;;;5.60;;
9789;SDS011;4934;50.852;8.098;2022-10-31T06:27:24;13.82;;;5.97;;
9789;SDS011;4934;50.852;8.098;2022-10-31T06:29:50;13.07;;;5.43;;
9789;SDS011;4934;50.852;8.098;2022-10-31T06:32:16;16.00;;;6.40;;
9789;SDS011;4934;50.852;8.098;2022-10-31T06:34:42;13.68;;;5.85;;
9789;SDS011;4934;50.852;8.098;2022-10-31T06:37:09;16.27;;;5.70;;
9789;SDS011;4934;50.852;8.098;2022-10-31T06:39:35;12.88;;;5.50;;
9789;SDS011;4934;50.852;8.098;2022-10-31T06:42:01;11.73;;;5.38;;
9789;SDS011;4934;50.852;8.098;2022-10-31T06:44:27;14.70;;;5.63;;
9789;SDS011;4934;50.852;8.098;2022-10-31T06:46:53;14.60;;;5.75;;
9789;SDS011;4934;50.852;8.098;2022-10-31T06:49:18;11.77;;;5.32;;
9789;SDS011;4934;50.852;8.098;2022-10-31T06:51:47;12.35;;;5.47;;
9789;SDS011;4934;50.852;8.098;2022-10-31T06:56:39;10.90;;;5.15;;
9789;SDS011;4934;50.852;8.098;2022-10-31T06:59:04;13.55;;;5.10;;
9789;SDS011;4934;50.852;8.098;2022-10-31T07:01:30;13.07;;;5.35;;
9789;SDS011;4934;50.852;8.098;2022-10-31T07:03:55;12.27;;;5.20;;
9789;SDS011;4934;50.852;8.098;2022-10-31T07:06:21;10.57;;;5.50;;
9789;SDS011;4934;50.852;8.098;2022-10-31T07:08:46;9.55;;;5.00;;
9789;SDS011;4934;50.852;8.098;2022-10-31T07:11:12;14.93;;;7.55;;
9789;SDS011;4934;50.852;8.098;2022-10-31T07:13:38;16.17;;;6.80;;
9789;SDS011;4934;50.852;8.098;2022-10-31T07:16:04;18.00;;;7.32;;
9789;SDS011;4934;50.852;8.098;2022-10-31T07:18:37;16.77;;;6.85;;
9789;SDS011;4934;50.852;8.098;2022-10-31T07:21:03;15.85;;;6.82;;
9789;SDS011;4934;50.852;8.098;2022-10-31T07:23:28;11.40;;;5.43;;
9789;SDS011;4934;50.852;8.098;2022-10-31T07:25:55;11.30;;;6.15;;
9789;SDS011;4934;50.852;8.098;2022-10-31T07:28:21;12.73;;;6.00;;
9789;SDS011;4934;50.852;8.098;2022-10-31T07:30:54;13.18;;;5.68;;
9789;SDS011;4934;50.852;8.098;2022-10-31T07:33:21;12.77;;;6.05;;
9789;SDS011;4934;50.852;8.098;2022-10-31T07:35:48;18.45;;;6.70;;
9789;SDS011;4934;50.852;8.098;2022-10-31T07:38:14;19.35;;;7.00;;
9789;SDS011;4934;50.852;8.098;2022-10-31T07:40:40;16.42;;;6.60;;
9789;SDS011;4934;50.852;8.098;2022-10-31T07:43:07;19.33;;;6.65;;
9789;SDS011;4934;50.852;8.098;2022-10-31T07:45:35;17.58;;;7.45;;
9789;SDS011;4934;50.852;8.098;2022-10-31T07:48:00;17.50;;;7.00;;
9789;SDS011;4934;50.852;8.098;2022-10-31T07:50:28;13.45;;;6.55;;
9789;SDS011;4934;50.852;8.098;2022-10-31T07:53:01;22.23;;;8.10;;
9789;SDS011;4934;50.852;8.098;2022-10-31T07:55:31;15.75;;;7.53;;
9789;SDS011;4934;50.852;8.098;2022-10-31T07:58:01;21.15;;;7.45;;
9789;SDS011;4934;50.852;8.098;2022-10-31T08:00:29;24.02;;;8.02;;
9789;SDS011;4934;50.852;8.098;2022-10-31T08:02:56;17.13;;;7.45;;
9789;SDS011;4934;50.852;8.098;2022-10-31T08:05:32;14.20;;;6.88;;
9789;SDS011;4934;50.852;8.098;2022-10-31T08:07:59;15.05;;;7.25;;
9789;SDS011;4934;50.852;8.098;2022-10-31T08:10:24;24.85;;;6.95;;
9789;SDS011;4934;50.852;8.098;2022-10-31T08:12:55;14.68;;;6.63;;
9789;SDS011;4934;50.852;8.098;2022-10-31T08:15:21;17.25;;;7.18;;
9789;SDS011;4934;50.852;8.098;2022-10-31T08:17:47;12.50;;;6.85;;
9789;SDS011;4934;50.852;8.098;2022-10-31T08:20:13;21.15;;;7.82;;
9789;SDS011;4934;50.852;8.098;2022-10-31T08:22:38;17.52;;;6.68;;
9789;SDS011;4934;50.852;8.098;2022-10-31T08:25:04;21.95;;;7.40;;
9789;SDS011;4934;50.852;8.098;2022-10-31T08:27:30;15.73;;;7.82;;
9789;SDS011;4934;50.852;8.098;2022-10-31T08:29:55;12.18;;;7.18;;
9789;SDS011;4934;50.852;8.098;2022-10-31T08:32:21;19.33;;;7.00;;
9789;SDS011;4934;50.852;8.098;2022-10-31T08:34:46;21.05;;;8.32;;
9789;SDS011;4934;50.852;8.098;2022-10-31T08:37:12;16.27;;;7.15;;
9789;SDS011;4934;50.852;8.098;2022-10-31T08:39:44;23.30;;;8.93;;
9789;SDS011;4934;50.852;8.098;2022-10-31T08:42:12;21.17;;;6.72;;
9789;SDS011;4934;50.852;8.098;2022-10-31T08:44:38;19.42;;;7.60;;
9789;SDS011;4934;50.852;8.098;2022-10-31T08:47:04;17.75;;;7.20;;
9789;SDS011;4934;50.852;8.098;2022-10-31T08:49:30;17.10;;;7.43;;
9789;SDS011;4934;50.852;8.098;2022-10-31T08:51:55;15.95;;;7.13;;
9789;SDS011;4934;50.852;8.098;2022-10-31T08:54:21;17.60;;;7.72;;
9789;SDS011;4934;50.852;8.098;2022-10-31T08:56:47;18.63;;;7.55;;
9789;SDS011;4934;50.852;8.098;2022-10-31T08:59:12;19.17;;;8.63;;
9789;SDS011;4934;50.852;8.098;2022-10-31T09:01:38;25.27;;;9.75;;
9789;SDS011;4934;50.852;8.098;2022-10-31T09:04:03;17.60;;;9.50;;
9789;SDS011;4934;50.852;8.098;2022-10-31T09:06:29;16.65;;;8.63;;
9789;SDS011;4934;50.852;8.098;2022-10-31T09:08:54;22.75;;;7.47;;
9789;SDS011;4934;50.852;8.098;2022-10-31T09:11:20;12.52;;;7.30;;
9789;SDS011;4934;50.852;8.098;2022-10-31T09:13:45;15.85;;;7.63;;
9789;SDS011;4934;50.852;8.098;2022-10-31T09:16:11;16.27;;;8.32;;
9789;SDS011;4934;50.852;8.098;2022-10-31T09:18:37;18.27;;;8.70;;
9789;SDS011;4934;50.852;8.098;2022-10-31T09:21:02;20.45;;;8.13;;
9789;SDS011;4934;50.852;8.098;2022-10-31T09:23:28;18.88;;;8.48;;
9789;SDS011;4934;50.852;8.098;2022-10-31T09:25:54;24.17;;;8.80;;
9789;SDS011;4934;50.852;8.098;2022-10-31T09:28:21;26.67;;;8.68;;
9789;SDS011;4934;50.852;8.098;2022-10-31T09:30:49;29.90;;;10.70;;
9789;SDS011;4934;50.852;8.098;2022-10-31T09:33:16;22.90;;;9.87;;
9789;SDS011;4934;50.852;8.098;2022-10-31T09:35:42;18.52;;;9.48;;
9789;SDS011;4934;50.852;8.098;2022-10-31T09:38:09;70.60;;;34.83;;
9789;SDS011;4934;50.852;8.098;2022-10-31T09:40:40;41.92;;;15.27;;
9789;SDS011;4934;50.852;8.098;2022-10-31T09:45:46;26.35;;;11.85;;
9789;SDS011;4934;50.852;8.098;2022-10-31T09:50:47;29.20;;;10.80;;
9789;SDS011;4934;50.852;8.098;2022-10-31T09:55:55;31.08;;;12.38;;
9789;SDS011;4934;50.852;8.098;2022-10-31T09:58:24;27.38;;;11.55;;
9789;SDS011;4934;50.852;8.098;2022-10-31T10:00:52;31.42;;;11.43;;
9789;SDS011;4934;50.852;8.098;2022-10-31T10:03:25;28.50;;;11.55;;
9789;SDS011;4934;50.852;8.098;2022-10-31T10:06:01;29.20;;;12.25;;
9789;SDS011;4934;50.852;8.098;2022-10-31T10:08:38;38.33;;;12.93;;
9789;SDS011;4934;50.852;8.098;2022-10-31T10:13:39;29.17;;;10.50;;
9789;SDS011;4934;50.852;8.098;2022-10-31T10:16:21;32.78;;;11.07;;
9789;SDS011;4934;50.852;8.098;2022-10-31T10:19:24;29.60;;;11.25;;
9789;SDS011;4934;50.852;8.098;2022-10-31T10:30:26;27.70;;;10.90;;
9789;SDS011;4934;50.852;8.098;2022-10-31T10:33:20;32.95;;;12.07;;
9789;SDS011;4934;50.852;8.098;2022-10-31T10:35:53;28.15;;;9.90;;
9789;SDS011;4934;50.852;8.098;2022-10-31T10:38:30;29.73;;;11.73;;
9789;SDS011;4934;50.852;8.098;2022-10-31T10:41:14;28.80;;;10.30;;
9789;SDS011;4934;50.852;8.098;2022-10-31T10:43:43;31.45;;;10.07;;
9789;SDS011;4934;50.852;8.098;2022-10-31T10:46:26;30.50;;;9.30;;
9789;SDS011;4934;50.852;8.098;2022-10-31T10:57:35;26.17;;;11.70;;
9789;SDS011;4934;50.852;8.098;2022-10-31T11:00:23;28.48;;;8.90;;
9789;SDS011;4934;50.852;8.098;2022-10-31T11:02:50;26.92;;;8.80;;
9789;SDS011;4934;50.852;8.098;2022-10-31T11:05:30;24.55;;;9.00;;
9789;SDS011;4934;50.852;8.098;2022-10-31T11:07:59;20.77;;;8.07;;
9789;SDS011;4934;50.852;8.098;2022-10-31T11:10:24;21.05;;;8.27;;
9789;SDS011;4934;50.852;8.098;2022-10-31T11:13:24;23.33;;;7.93;;
9789;SDS011;4934;50.852;8.098;2022-10-31T11:15:51;21.70;;;6.15;;
9789;SDS011;4934;50.852;8.098;2022-10-31T11:18:19;16.83;;;6.05;;
9789;SDS011;4934;50.852;8.098;2022-10-31T11:20:54;19.25;;;5.97;;
9789;SDS011;4934;50.852;8.098;2022-10-31T11:23:21;13.13;;;6.30;;
9789;SDS011;4934;50.852;8.098;2022-10-31T11:25:49;14.93;;;6.03;;
9789;SDS011;4934;50.852;8.098;2022-10-31T11:28:16;14.40;;;5.40;;
9789;SDS011;4934;50.852;8.098;2022-10-31T11:30:46;12.63;;;5.03;;
9789;SDS011;4934;50.852;8.098;2022-10-31T11:33:16;22.20;;;5.95;;
9789;SDS011;4934;50.852;8.098;2022-10-31T11:38:12;16.08;;;5.13;;
9789;SDS011;4934;50.852;8.098;2022-10-31T11:40:56;11.68;;;4.93;;
9789;SDS011;4934;50.852;8.098;2022-10-31T11:43:48;23.30;;;5.05;;
9789;SDS011;4934;50.852;8.098;2022-10-31T11:46:38;15.75;;;4.72;;
9789;SDS011;4934;50.852;8.098;2022-10-31T11:49:12;15.65;;;5.10;;
9789;SDS011;4934;50.852;8.098;2022-10-31T11:51:42;18.02;;;5.72;;
9789;SDS011;4934;50.852;8.098;2022-10-31T11:54:18;19.17;;;5.15;;
9789;SDS011;4934;50.852;8.098;2022-10-31T11:56:46;11.70;;;4.68;;
9789;SDS011;4934;50.852;8.098;2022-10-31T11:59:24;15.40;;;5.03;;
9789;SDS011;4934;50.852;8.098;2022-10-31T12:01:51;13.05;;;4.43;;
9789;SDS011;4934;50.852;8.098;2022-10-31T12:04:17;17.83;;;5.05;;
9789;SDS011;4934;50.852;8.098;2022-10-31T12:06:45;10.70;;;4.63;;
9789;SDS011;4934;50.852;8.098;2022-10-31T12:09:16;17.67;;;5.37;;
9789;SDS011;4934;50.852;8.098;2022-10-31T12:12:03;16.00;;;5.53;;
9789;SDS011;4934;50.852;8.098;2022-10-31T12:15:01;15.13;;;5.15;;
9789;SDS011;4934;50.852;8.098;2022-10-31T12:23:40;12.88;;;4.63;;
9789;SDS011;4934;50.852;8.098;2022-10-31T12:31:42;10.50;;;4.65;;
9789;SDS011;4934;50.852;8.098;2022-10-31T12:37:33;14.32;;;5.55;;
9789;SDS011;4934;50.852;8.098;2022-10-31T12:45:58;14.32;;;4.32;;
9789;SDS011;4934;50.852;8.098;2022-10-31T12:51:19;14.00;;;4.70;;
9789;SDS011;4934;50.852;8.098;2022-10-31T12:56:51;13.93;;;6.10;;
9789;SDS011;4934;50.852;8.098;2022-10-31T12:59:47;11.02;;;5.00;;
9789;SDS011;4934;50.852;8.098;2022-10-31T13:10:47;20.38;;;4.82;;
9789;SDS011;4934;50.852;8.098;2022-10-31T13:18:51;12.88;;;4.70;;
9789;SDS011;4934;50.852;8.098;2022-10-31T13:21:23;14.55;;;4.88;;
9789;SDS011;4934;50.852;8.098;2022-10-31T13:23:57;17.50;;;6.03;;
9789;SDS011;4934;50.852;8.098;2022-10-31T13:26:40;24.48;;;5.50;;
9789;SDS011;4934;50.852;8.098;2022-10-31T13:31:58;15.77;;;5.87;;
9789;SDS011;4934;50.852;8.098;2022-10-31T13:34:30;16.80;;;4.90;;
9789;SDS011;4934;50.852;8.098;2022-10-31T13:37:13;21.40;;;4.45;;
9789;SDS011;4934;50.852;8.098;2022-10-31T13:45:18;11.30;;;4.65;;
9789;SDS011;4934;50.852;8.098;2022-10-31T13:50:41;12.40;;;4.15;;
9789;SDS011;4934;50.852;8.098;2022-10-31T13:53:09;11.02;;;4.60;;
9789;SDS011;4934;50.852;8.098;2022-10-31T13:55:45;14.18;;;4.35;;
9789;SDS011;4934;50.852;8.098;2022-10-31T13:58:27;16.90;;;5.28;;
9789;SDS011;4934;50.852;8.098;2022-10-31T14:01:12;14.35;;;5.05;;
9789;SDS011;4934;50.852;8.098;2022-10-31T14:03:44;13.77;;;3.97;;
9789;SDS011;4934;50.852;8.098;2022-10-31T14:06:12;18.95;;;4.45;;
9789;SDS011;4934;50.852;8.098;2022-10-31T14:08:40;10.32;;;4.22;;
9789;SDS011;4934;50.852;8.098;2022-10-31T14:11:23;15.57;;;5.50;;
9789;SDS011;4934;50.852;8.098;2022-10-31T14:13:52;12.48;;;4.65;;
9789;SDS011;4934;50.852;8.098;2022-10-31T14:16:29;18.90;;;4.68;;
9789;SDS011;4934;50.852;8.098;2022-10-31T14:19:06;14.02;;;4.13;;
9789;SDS011;4934;50.852;8.098;2022-10-31T14:21:42;19.88;;;5.25;;
9789;SDS011;4934;50.852;8.098;2022-10-31T14:24:29;15.10;;;4.13;;
9789;SDS011;4934;50.852;8.098;2022-10-31T14:29:28;12.68;;;4.07;;
9789;SDS011;4934;50.852;8.098;2022-10-31T14:34:39;9.95;;;4.45;;
9789;SDS011;4934;50.852;8.098;2022-10-31T14:40:25;19.52;;;5.63;;
9789;SDS011;4934;50.852;8.098;2022-10-31T14:45:59;15.63;;;4.53;;
9789;SDS011;4934;50.852;8.098;2022-10-31T14:50:58;18.48;;;6.25;;
9789;SDS011;4934;50.852;8.098;2022-10-31T14:55:56;15.07;;;5.35;;
9789;SDS011;4934;50.852;8.098;2022-10-31T14:58:32;18.50;;;6.13;;
9789;SDS011;4934;50.852;8.098;2022-10-31T15:01:07;17.67;;;4.55;;
9789;SDS011;4934;50.852;8.098;2022-10-31T15:03:44;11.35;;;4.38;;
9789;SDS011;4934;50.852;8.098;2022-10-31T15:06:13;12.07;;;4.10;;
9789;SDS011;4934;50.852;8.098;2022-10-31T15:08:45;11.57;;;4.10;;
9789;SDS011;4934;50.852;8.098;2022-10-31T15:11:20;16.08;;;4.15;;
9789;SDS011;4934;50.852;8.098;2022-10-31T15:13:49;12.57;;;3.63;;
9789;SDS011;4934;50.852;8.098;2022-10-31T15:16:26;14.73;;;4.40;;
9789;SDS011;4934;50.852;8.098;2022-10-31T15:18:57;13.30;;;4.57;;
9789;SDS011;4934;50.852;8.098;2022-10-31T15:21:26;12.68;;;4.40;;
9789;SDS011;4934;50.852;8.098;2022-10-31T15:23:54;15.70;;;5.13;;
9789;SDS011;4934;50.852;8.098;2022-10-31T15:26:22;15.02;;;5.78;;
9789;SDS011;4934;50.852;8.098;2022-10-31T15:29:02;16.02;;;4.40;;
9789;SDS011;4934;50.852;8.098;2022-10-31T15:31:30;13.80;;;6.88;;
9789;SDS011;4934;50.852;8.098;2022-10-31T15:33:58;11.30;;;3.95;;
9789;SDS011;4934;50.852;8.098;2022-10-31T15:36:30;10.95;;;4.15;;
9789;SDS011;4934;50.852;8.098;2022-10-31T15:38:57;16.20;;;4.00;;
9789;SDS011;4934;50.852;8.098;2022-10-31T15:44:12;10.75;;;4.85;;
9789;SDS011;4934;50.852;8.098;2022-10-31T15:46:56;12.13;;;4.78;;
9789;SDS011;4934;50.852;8.098;2022-10-31T15:51:53;20.33;;;10.07;;
9789;SDS011;4934;50.852;8.098;2022-10-31T15:54:19;28.90;;;11.55;;
9789;SDS011;4934;50.852;8.098;2022-10-31T15:56:45;14.10;;;6.55;;
9789;SDS011;4934;50.852;8.098;2022-10-31T15:59:11;19.05;;;6.47;;
9789;SDS011;4934;50.852;8.098;2022-10-31T16:01:58;16.70;;;5.43;;
9789;SDS011;4934;50.852;8.098;2022-10-31T16:04:34;14.30;;;5.20;;
9789;SDS011;4934;50.852;8.098;2022-10-31T16:07:02;14.57;;;6.03;;
9789;SDS011;4934;50.852;8.098;2022-10-31T16:09:49;12.18;;;4.60;;
9789;SDS011;4934;50.852;8.098;2022-10-31T16:12:23;16.65;;;4.93;;
9789;SDS011;4934;50.852;8.098;2022-10-31T16:14:52;14.10;;;4.53;;
9789;SDS011;4934;50.852;8.098;2022-10-31T16:17:20;12.35;;;4.90;;
9789;SDS011;4934;50.852;8.098;2022-10-31T16:19:56;13.75;;;5.05;;
9789;SDS011;4934;50.852;8.098;2022-10-31T16:22:29;27.88;;;5.43;;
9789;SDS011;4934;50.852;8.098;2022-10-31T16:25:04;12.05;;;5.82;;
9789;SDS011;4934;50.852;8.098;2022-10-31T16:27:34;13.15;;;5.85;;
9789;SDS011;4934;50.852;8.098;2022-10-31T16:30:01;15.52;;;7.18;;
9789;SDS011;4934;50.852;8.098;2022-10-31T16:32:52;14.52;;;5.78;;
9789;SDS011;4934;50.852;8.098;2022-10-31T16:35:27;18.90;;;5.78;;
9789;SDS011;4934;50.852;8.098;2022-10-31T16:37:56;12.82;;;4.95;;
9789;SDS011;4934;50.852;8.098;2022-10-31T16:40:22;14.55;;;5.63;;
9789;SDS011;4934;50.852;8.098;2022-10-31T16:42:48;11.75;;;5.45;;
9789;SDS011;4934;50.852;8.098;2022-10-31T16:45:24;21.65;;;5.78;;
9789;SDS011;4934;50.852;8.098;2022-10-31T16:47:52;18.88;;;5.45;;
9789;SDS011;4934;50.852;8.098;2022-10-31T16:50:22;15.02;;;5.13;;
9789;SDS011;4934;50.852;8.098;2022-10-31T16:52:50;16.48;;;5.75;;
9789;SDS011;4934;50.852;8.098;2022-10-31T16:55:16;19.70;;;5.85;;
9789;SDS011;4934;50.852;8.098;2022-10-31T16:57:45;21.58;;;5.65;;
9789;SDS011;4934;50.852;8.098;2022-10-31T17:00:17;18.80;;;7.38;;
9789;SDS011;4934;50.852;8.098;2022-10-31T17:02:45;23.95;;;6.13;;
9789;SDS011;4934;50.852;8.098;2022-10-31T17:05:12;11.45;;;5.63;;
9789;SDS011;4934;50.852;8.098;2022-10-31T17:07:39;17.70;;;6.60;;
9789;SDS011;4934;50.852;8.098;2022-10-31T17:10:05;22.40;;;7.53;;
9789;SDS011;4934;50.852;8.098;2022-10-31T17:12:32;20.20;;;6.50;;
9789;SDS011;4934;50.852;8.098;2022-10-31T17:14:58;12.27;;;6.40;;
9789;SDS011;4934;50.852;8.098;2022-10-31T17:17:23;26.30;;;7.80;;
9789;SDS011;4934;50.852;8.098;2022-10-31T17:19:49;14.38;;;6.70;;
9789;SDS011;4934;50.852;8.098;2022-10-31T17:22:14;13.90;;;6.15;;
9789;SDS011;4934;50.852;8.098;2022-10-31T17:24:40;22.60;;;8.23;;
9789;SDS011;4934;50.852;8.098;2022-10-31T17:27:06;20.90;;;7.05;;
9789;SDS011;4934;50.852;8.098;2022-10-31T17:29:31;19.10;;;6.75;;